sensor_id;sensor_type;location;lat;lon;timestamp;pressure;altitude;pressure_sealevel;temperature;humidity
10145;BME280;5113;41.822;23.564;2023-08-06T00:02:16;-11484.06;;;19.85;100.00
10145;BME280;5113;41.822;23.564;2023-08-06T00:05:22;-11503.25;;;20.54;100.00
10145;BME280;5113;41.822;23.564;2023-08-06T00:08:30;-11510.88;;;20.81;100.00
10145;BME280;5113;41.822;23.564;2023-08-06T00:11:36;-11507.50;;;20.69;100.00
10145;BME280;5113;41.822;23.564;2023-08-06T00:14:43;-11502.28;;;20.50;100.00
10145;BME280;5113;41.822;23.564;2023-08-06T00:17:49;-11495.34;;;20.25;100.00
10145;BME280;5113;41.822;23.564;2023-08-06T00:20:56;-11503.97;;;20.56;100.00
10145;BME280;5113;41.822;23.564;2023-08-06T00:24:04;-11499.72;;;20.41;100.00
10145;BME280;5113;41.822;23.564;2023-08-06T00:27:10;-11506.34;;;20.65;100.00
10145;BME280;5113;41.822;23.564;2023-08-06T00:30:17;-11514.25;;;20.93;100.00
10145;BME280;5113;41.822;23.564;2023-08-06T00:33:24;-11501.84;;;20.49;100.00
10145;BME280;5113;41.822;23.564;2023-08-06T00:36:30;-11498.75;;;20.37;100.00
10145;BME280;5113;41.822;23.564;2023-08-06T00:39:38;-11488.88;;;20.02;100.00
10145;BME280;5113;41.822;23.564;2023-08-06T00:42:45;-11499.59;;;20.40;100.00
10145;BME280;5113;41.822;23.564;2023-08-06T00:45:52;-11498.75;;;20.37;100.00
10145;BME280;5113;41.822;23.564;2023-08-06T00:48:58;-11484.34;;;19.86;100.00
10145;BME280;5113;41.822;23.564;2023-08-06T00:52:05;-11490.69;;;20.08;100.00
10145;BME280;5113;41.822;23.564;2023-08-06T00:55:15;-11499.44;;;20.40;100.00
10145;BME280;5113;41.822;23.564;2023-08-06T00:58:21;-11500.72;;;20.44;100.00
10145;BME280;5113;41.822;23.564;2023-08-06T01:01:27;-11496.75;;;20.30;100.00
10145;BME280;5113;41.822;23.564;2023-08-06T01:04:34;-11492.81;;;20.16;100.00
10145;BME280;5113;41.822;23.564;2023-08-06T01:07:49;-11490.84;;;20.09;100.00
10145;BME280;5113;41.822;23.564;2023-08-06T01:11:13;-11487.19;;;19.96;100.00
10145;BME280;5113;41.822;23.564;2023-08-06T01:14:34;-11490.56;;;20.08;100.00
10145;BME280;5113;41.822;23.564;2023-08-06T01:17:45;-11480.69;;;19.72;100.00
10145;BME280;5113;41.822;23.564;2023-08-06T01:20:53;-11485.19;;;19.89;100.00
10145;BME280;5113;41.822;23.564;2023-08-06T01:23:59;-11476.47;;;19.57;100.00
10145;BME280;5113;41.822;23.564;2023-08-06T01:27:10;-11486.31;;;19.93;100.00
10145;BME280;5113;41.822;23.564;2023-08-06T01:30:22;-11478.44;;;19.64;100.00
10145;BME280;5113;41.822;23.564;2023-08-06T01:33:32;-11477.03;;;19.59;100.00
10145;BME280;5113;41.822;23.564;2023-08-06T01:36:42;-11485.75;;;19.91;100.00
10145;BME280;5113;41.822;23.564;2023-08-06T01:39:49;-11487.31;;;19.96;100.00
10145;BME280;5113;41.822;23.564;2023-08-06T01:42:55;-11491.69;;;20.12;100.00
10145;BME280;5113;41.822;23.564;2023-08-06T01:46:01;-11488.31;;;20.00;100.00
10145;BME280;5113;41.822;23.564;2023-08-06T01:49:08;-11482.09;;;19.77;100.00
10145;BME280;5113;41.822;23.564;2023-08-06T01:52:16;-11476.03;;;19.56;100.00
10145;BME280;5113;41.822;23.564;2023-08-06T01:55:22;-11485.19;;;19.89;100.00
10145;BME280;5113;41.822;23.564;2023-08-06T01:58:29;-11479.28;;;19.67;100.00
10145;BME280;5113;41.822;23.564;2023-08-06T02:01:36;-11475.06;;;19.52;100.00
10145;BME280;5113;41.822;23.564;2023-08-06T02:04:42;-11468.56;;;19.29;100.00
10145;BME280;5113;41.822;23.564;2023-08-06T02:07:50;-11473.34;;;19.46;100.00
10145;BME280;5113;41.822;23.564;2023-08-06T02:10:57;-11472.50;;;19.43;100.00
10145;BME280;5113;41.822;23.564;2023-08-06T02:14:04;-11471.09;;;19.38;100.00
10145;BME280;5113;41.822;23.564;2023-08-06T02:17:10;-11468.84;;;19.30;100.00
10145;BME280;5113;41.822;23.564;2023-08-06T02:20:17;-11471.66;;;19.40;100.00
10145;BME280;5113;41.822;23.564;2023-08-06T02:23:25;-11480.13;;;19.70;100.00
10145;BME280;5113;41.822;23.564;2023-08-06T02:26:32;-11476.59;;;19.58;100.00
10145;BME280;5113;41.822;23.564;2023-08-06T02:29:40;-11482.09;;;19.77;100.00
10145;BME280;5113;41.822;23.564;2023-08-06T02:32:46;-11471.37;;;19.39;100.00
10145;BME280;5113;41.822;23.564;2023-08-06T02:35:59;-11479.41;;;19.68;100.00
10145;BME280;5113;41.822;23.564;2023-08-06T02:39:07;-11464.59;;;19.14;100.00
10145;BME280;5113;41.822;23.564;2023-08-06T02:42:13;-11472.22;;;19.42;100.00
10145;BME280;5113;41.822;23.564;2023-08-06T02:45:20;-11457.84;;;18.90;100.00
10145;BME280;5113;41.822;23.564;2023-08-06T02:48:27;-11456.16;;;18.84;100.00
10145;BME280;5113;41.822;23.564;2023-08-06T02:51:33;-11457.41;;;18.89;100.00
10145;BME280;5113;41.822;23.564;2023-08-06T02:54:41;-11461.66;;;19.04;100.00
10145;BME280;5113;41.822;23.564;2023-08-06T02:57:47;-11466.00;;;19.20;100.00
10145;BME280;5113;41.822;23.564;2023-08-06T03:01:01;-11479.56;;;19.68;100.00
10145;BME280;5113;41.822;23.564;2023-08-06T03:04:09;-11484.50;;;19.86;100.00
10145;BME280;5113;41.822;23.564;2023-08-06T03:07:15;-11466.59;;;19.22;100.00
10145;BME280;5113;41.822;23.564;2023-08-06T03:10:23;-11480.69;;;19.72;100.00
10145;BME280;5113;41.822;23.564;2023-08-06T03:13:30;-11475.91;;;19.55;100.00
10145;BME280;5113;41.822;23.564;2023-08-06T03:16:37;-11462.06;;;19.05;100.00
10145;BME280;5113;41.822;23.564;2023-08-06T03:19:43;-11465.72;;;19.19;100.00
10145;BME280;5113;41.822;23.564;2023-08-06T03:22:50;-11462.78;;;19.08;100.00
10145;BME280;5113;41.822;23.564;2023-08-06T03:26:02;-11462.91;;;19.08;100.00
10145;BME280;5113;41.822;23.564;2023-08-06T03:29:09;-11449.38;;;18.60;100.00
10145;BME280;5113;41.822;23.564;2023-08-06T03:32:15;-11456.72;;;18.86;100.00
10145;BME280;5113;41.822;23.564;2023-08-06T03:35:22;-11454.88;;;18.79;100.00
10145;BME280;5113;41.822;23.564;2023-08-06T03:38:28;-11449.09;;;18.59;100.00
10145;BME280;5113;41.822;23.564;2023-08-06T03:41:36;-11450.38;;;18.63;100.00
10145;BME280;5113;41.822;23.564;2023-08-06T03:44:43;-11471.37;;;19.39;100.00
10145;BME280;5113;41.822;23.564;2023-08-06T03:47:49;-11469.41;;;19.32;100.00
10145;BME280;5113;41.822;23.564;2023-08-06T03:50:56;-11472.50;;;19.43;100.00
10145;BME280;5113;41.822;23.564;2023-08-06T03:54:02;-11476.47;;;19.57;100.00
10145;BME280;5113;41.822;23.564;2023-08-06T03:57:10;-11473.34;;;19.46;100.00
10145;BME280;5113;41.822;23.564;2023-08-06T04:00:17;-11472.22;;;19.42;100.00
10145;BME280;5113;41.822;23.564;2023-08-06T04:03:24;-11472.78;;;19.44;100.00
10145;BME280;5113;41.822;23.564;2023-08-06T04:06:30;-11473.34;;;19.46;100.00
10145;BME280;5113;41.822;23.564;2023-08-06T04:09:53;-11479.00;;;19.66;100.00
10145;BME280;5113;41.822;23.564;2023-08-06T04:13:02;-11473.63;;;19.47;100.00
10145;BME280;5113;41.822;23.564;2023-08-06T04:16:08;-11468.28;;;19.28;100.00
10145;BME280;5113;41.822;23.564;2023-08-06T04:19:15;-11465.44;;;19.18;100.00
10145;BME280;5113;41.822;23.564;2023-08-06T04:22:21;-11464.88;;;19.16;100.00
10145;BME280;5113;41.822;23.564;2023-08-06T04:25:27;-11468.00;;;19.27;100.00
10145;BME280;5113;41.822;23.564;2023-08-06T04:28:35;-11462.50;;;19.07;100.00
10145;BME280;5113;41.822;23.564;2023-08-06T04:31:41;-11477.44;;;19.61;100.00
10145;BME280;5113;41.822;23.564;2023-08-06T04:34:48;-11476.31;;;19.57;100.00
10145;BME280;5113;41.822;23.564;2023-08-06T04:37:54;-11475.91;;;19.55;100.00
10145;BME280;5113;41.822;23.564;2023-08-06T04:41:02;-11480.13;;;19.70;100.00
10145;BME280;5113;41.822;23.564;2023-08-06T04:44:10;-11481.53;;;19.75;100.00
10145;BME280;5113;41.822;23.564;2023-08-06T04:47:16;-11484.06;;;19.85;100.00
10145;BME280;5113;41.822;23.564;2023-08-06T04:50:23;-11486.59;;;19.94;100.00
10145;BME280;5113;41.822;23.564;2023-08-06T04:53:30;-11497.59;;;20.33;100.00
10145;BME280;5113;41.822;23.564;2023-08-06T04:56:37;-11501.56;;;20.48;100.00
10145;BME280;5113;41.822;23.564;2023-08-06T04:59:45;-11505.22;;;20.61;100.00
10145;BME280;5113;41.822;23.564;2023-08-06T05:02:51;-11505.22;;;20.61;100.00
10145;BME280;5113;41.822;23.564;2023-08-06T05:05:58;-11503.97;;;20.56;100.00
10145;BME280;5113;41.822;23.564;2023-08-06T05:09:05;-11516.22;;;21.00;100.00
10145;BME280;5113;41.822;23.564;2023-08-06T05:12:12;-11520.47;;;21.16;100.00
10145;BME280;5113;41.822;23.564;2023-08-06T05:15:20;-11523.56;;;21.27;100.00
10145;BME280;5113;41.822;23.564;2023-08-06T05:18:27;-11526.13;;;21.36;100.00
10145;BME280;5113;41.822;23.564;2023-08-06T05:21:34;-11526.41;;;21.37;100.00
10145;BME280;5113;41.822;23.564;2023-08-06T05:24:40;-11537.41;;;21.77;100.00
10145;BME280;5113;41.822;23.564;2023-08-06T05:27:47;-11537.13;;;21.75;100.00
10145;BME280;5113;41.822;23.564;2023-08-06T05:30:55;-11537.69;;;21.78;100.00
10145;BME280;5113;41.822;23.564;2023-08-06T05:34:01;-11551.09;;;22.26;100.00
10145;BME280;5113;41.822;23.564;2023-08-06T05:37:08;-11554.34;;;22.37;100.00
10145;BME280;5113;41.822;23.564;2023-08-06T05:40:15;-11549.69;;;22.21;100.00
10145;BME280;5113;41.822;23.564;2023-08-06T05:43:21;-11566.59;;;22.82;100.00
10145;BME280;5113;41.822;23.564;2023-08-06T05:46:29;-11563.34;;;22.70;100.00
10145;BME280;5113;41.822;23.564;2023-08-06T05:49:35;-11563.78;;;22.71;100.00
10145;BME280;5113;41.822;23.564;2023-08-06T05:52:41;-11558.28;;;22.52;100.00
10145;BME280;5113;41.822;23.564;2023-08-06T05:58:54;-11581.84;;;23.36;100.00
10145;BME280;5113;41.822;23.564;2023-08-06T06:02:02;-11576.91;;;23.19;100.00
10145;BME280;5113;41.822;23.564;2023-08-06T06:05:09;-11585.38;;;23.49;100.00
10145;BME280;5113;41.822;23.564;2023-08-06T06:08:15;-11578.59;;;23.25;100.00
10145;BME280;5113;41.822;23.564;2023-08-06T06:11:22;-11566.47;;;22.81;100.00
10145;BME280;5113;41.822;23.564;2023-08-06T06:14:29;-11545.00;;;22.04;100.00
10145;BME280;5113;41.822;23.564;2023-08-06T06:17:36;-11554.06;;;22.36;100.00
10145;BME280;5113;41.822;23.564;2023-08-06T06:20:43;-11530.34;;;21.51;100.00
10145;BME280;5113;41.822;23.564;2023-08-06T06:23:49;-11549.25;;;22.19;100.00
10145;BME280;5113;41.822;23.564;2023-08-06T06:26:56;-11543.03;;;21.97;100.00
10145;BME280;5113;41.822;23.564;2023-08-06T06:30:04;-11533.03;;;21.61;100.00
10145;BME280;5113;41.822;23.564;2023-08-06T06:33:12;-11526.53;;;21.37;100.00
10145;BME280;5113;41.822;23.564;2023-08-06T06:36:19;-11544.72;;;22.03;100.00
10145;BME280;5113;41.822;23.564;2023-08-06T06:39:25;-11551.22;;;22.26;100.00
10145;BME280;5113;41.822;23.564;2023-08-06T06:42:32;-11563.34;;;22.70;100.00
10145;BME280;5113;41.822;23.564;2023-08-06T06:45:38;-11563.34;;;22.70;100.00
10145;BME280;5113;41.822;23.564;2023-08-06T06:48:47;-11561.25;;;22.62;98.32
10145;BME280;5113;41.822;23.564;2023-08-06T06:51:53;-11558.56;;;22.53;100.00
10145;BME280;5113;41.822;23.564;2023-08-06T06:55:00;-11572.69;;;23.03;98.79
10145;BME280;5113;41.822;23.564;2023-08-06T06:58:06;-11571.84;;;23.00;92.18
10145;BME280;5113;41.822;23.564;2023-08-06T07:01:13;-11575.06;;;23.12;93.30
10145;BME280;5113;41.822;23.564;2023-08-06T07:04:21;-11582.56;;;23.39;92.61
10145;BME280;5113;41.822;23.564;2023-08-06T07:07:27;-11572.81;;;23.04;88.69
10145;BME280;5113;41.822;23.564;2023-08-06T07:10:34;-11595.53;;;23.86;86.76
10145;BME280;5113;41.822;23.564;2023-08-06T07:13:41;-11588.34;;;23.60;87.66
10145;BME280;5113;41.822;23.564;2023-08-06T07:16:47;-11589.63;;;23.64;89.93
10145;BME280;5113;41.822;23.564;2023-08-06T07:19:55;-11576.06;;;23.16;89.20
10145;BME280;5113;41.822;23.564;2023-08-06T07:23:01;-11585.38;;;23.49;86.63
10145;BME280;5113;41.822;23.564;2023-08-06T07:26:11;-11592.72;;;23.76;86.25
10145;BME280;5113;41.822;23.564;2023-08-06T07:29:18;-11599.91;;;24.01;86.30
10145;BME280;5113;41.822;23.564;2023-08-06T07:32:24;-11598.94;;;23.98;81.27
10145;BME280;5113;41.822;23.564;2023-08-06T07:35:32;-11587.34;;;23.56;85.60
10145;BME280;5113;41.822;23.564;2023-08-06T07:38:38;-11589.75;;;23.65;83.10
10145;BME280;5113;41.822;23.564;2023-08-06T07:41:45;-11597.53;;;23.93;79.00
10145;BME280;5113;41.822;23.564;2023-08-06T07:44:53;-11588.63;;;23.61;84.02
10145;BME280;5113;41.822;23.564;2023-08-06T07:48:00;-11583.41;;;23.42;87.09
10145;BME280;5113;41.822;23.564;2023-08-06T07:51:07;-11608.09;;;24.31;81.24
10145;BME280;5113;41.822;23.564;2023-08-06T07:54:14;-11566.19;;;22.80;89.82
10145;BME280;5113;41.822;23.564;2023-08-06T07:57:20;-11612.47;;;24.47;78.92
10145;BME280;5113;41.822;23.564;2023-08-06T08:00:27;-11593.28;;;23.78;80.88
10145;BME280;5113;41.822;23.564;2023-08-06T08:03:34;-11597.81;;;23.94;79.54
10145;BME280;5113;41.822;23.564;2023-08-06T08:06:41;-11598.22;;;23.95;77.26
10145;BME280;5113;41.822;23.564;2023-08-06T08:09:48;-11601.19;;;24.06;76.61
10145;BME280;5113;41.822;23.564;2023-08-06T08:12:55;-11601.34;;;24.07;74.06
10145;BME280;5113;41.822;23.564;2023-08-06T08:16:01;-11631.69;;;25.16;70.74
10145;BME280;5113;41.822;23.564;2023-08-06T08:19:08;-11595.97;;;23.87;74.23
10145;BME280;5113;41.822;23.564;2023-08-06T08:22:16;-11614.47;;;24.54;72.70
10145;BME280;5113;41.822;23.564;2023-08-06T08:25:22;-11621.53;;;24.79;72.24
10145;BME280;5113;41.822;23.564;2023-08-06T08:28:29;-11591.03;;;23.69;73.02
10145;BME280;5113;41.822;23.564;2023-08-06T08:31:36;-11617.28;;;24.64;70.03
10145;BME280;5113;41.822;23.564;2023-08-06T08:34:44;-11622.94;;;24.84;67.47
10145;BME280;5113;41.822;23.564;2023-08-06T08:37:52;-11617.28;;;24.64;65.88
10145;BME280;5113;41.822;23.564;2023-08-06T08:40:59;-11630.00;;;25.10;65.44
10145;BME280;5113;41.822;23.564;2023-08-06T08:44:08;-11636.34;;;25.32;64.67
10145;BME280;5113;41.822;23.564;2023-08-06T08:47:15;-11615.16;;;24.56;65.88
10145;BME280;5113;41.822;23.564;2023-08-06T08:50:22;-11637.91;;;25.38;62.45
10145;BME280;5113;41.822;23.564;2023-08-06T08:53:30;-11645.66;;;25.66;59.85
10145;BME280;5113;41.822;23.564;2023-08-06T08:56:37;-11642.13;;;25.53;57.21
10145;BME280;5113;41.822;23.564;2023-08-06T08:59:44;-11632.53;;;25.19;56.86
10145;BME280;5113;41.822;23.564;2023-08-06T09:02:51;-11654.69;;;25.98;55.82
10145;BME280;5113;41.822;23.564;2023-08-06T09:05:59;-11662.47;;;26.26;55.15
10145;BME280;5113;41.822;23.564;2023-08-06T09:09:13;-11646.66;;;25.70;55.77
10145;BME280;5113;41.822;23.564;2023-08-06T09:12:22;-11642.84;;;25.56;54.97
10145;BME280;5113;41.822;23.564;2023-08-06T09:15:28;-11657.09;;;26.07;54.47
10145;BME280;5113;41.822;23.564;2023-08-06T09:18:38;-11630.28;;;25.11;54.78
10145;BME280;5113;41.822;23.564;2023-08-06T09:21:45;-11662.03;;;26.25;55.24
10145;BME280;5113;41.822;23.564;2023-08-06T09:24:55;-11677.72;;;26.81;52.13
10145;BME280;5113;41.822;23.564;2023-08-06T09:28:03;-11656.69;;;26.06;52.15
10145;BME280;5113;41.822;23.564;2023-08-06T09:31:09;-11677.44;;;26.80;53.10
10145;BME280;5113;41.822;23.564;2023-08-06T09:34:17;-11673.34;;;26.65;50.43
10145;BME280;5113;41.822;23.564;2023-08-06T09:37:25;-11690.56;;;27.27;48.98
10145;BME280;5113;41.822;23.564;2023-08-06T09:40:42;-11692.41;;;27.34;48.47
10145;BME280;5113;41.822;23.564;2023-08-06T09:43:49;-11670.25;;;26.54;51.27
10145;BME280;5113;41.822;23.564;2023-08-06T09:46:56;-11679.84;;;26.89;51.51
10145;BME280;5113;41.822;23.564;2023-08-06T09:50:04;-11694.38;;;27.41;49.99
10145;BME280;5113;41.822;23.564;2023-08-06T09:53:13;-11698.06;;;27.54;49.03
10145;BME280;5113;41.822;23.564;2023-08-06T09:56:21;-11696.38;;;27.48;48.71
10145;BME280;5113;41.822;23.564;2023-08-06T09:59:27;-11685.63;;;27.10;50.07
10145;BME280;5113;41.822;23.564;2023-08-06T10:02:35;-11687.59;;;27.17;51.01
10145;BME280;5113;41.822;23.564;2023-08-06T10:05:44;-11655.41;;;26.01;52.86
10145;BME280;5113;41.822;23.564;2023-08-06T10:08:52;-11674.31;;;26.69;50.45
10145;BME280;5113;41.822;23.564;2023-08-06T10:12:01;-11678.84;;;26.85;49.53
10145;BME280;5113;41.822;23.564;2023-08-06T10:15:09;-11685.63;;;27.10;47.65
10145;BME280;5113;41.822;23.564;2023-08-06T10:18:17;-11689.59;;;27.24;47.90
10145;BME280;5113;41.822;23.564;2023-08-06T10:21:26;-11693.53;;;27.38;47.50
10145;BME280;5113;41.822;23.564;2023-08-06T10:24:46;-11666.84;;;26.42;48.85
10145;BME280;5113;41.822;23.564;2023-08-06T10:27:57;-11639.16;;;25.43;51.94
10145;BME280;5113;41.822;23.564;2023-08-06T10:31:04;-11646.22;;;25.68;51.19
10145;BME280;5113;41.822;23.564;2023-08-06T10:34:10;-11650.03;;;25.82;51.15
10145;BME280;5113;41.822;23.564;2023-08-06T10:37:18;-11636.78;;;25.34;52.65
10145;BME280;5113;41.822;23.564;2023-08-06T10:40:25;-11629.72;;;25.09;52.88
10145;BME280;5113;41.822;23.564;2023-08-06T10:43:34;-11625.75;;;24.94;52.06
10145;BME280;5113;41.822;23.564;2023-08-06T10:46:43;-11620.09;;;24.74;52.35
10145;BME280;5113;41.822;23.564;2023-08-06T10:49:54;-11688.44;;;27.20;48.88
10145;BME280;5113;41.822;23.564;2023-08-06T10:53:04;-11668.13;;;26.47;50.30
10145;BME280;5113;41.822;23.564;2023-08-06T10:56:12;-11666.72;;;26.42;50.72
10145;BME280;5113;41.822;23.564;2023-08-06T10:59:21;-11704.41;;;27.77;47.76
10145;BME280;5113;41.822;23.564;2023-08-06T11:02:28;-11711.75;;;28.04;48.06
10145;BME280;5113;41.822;23.564;2023-08-06T11:05:34;-11698.63;;;27.56;46.99
10145;BME280;5113;41.822;23.564;2023-08-06T11:08:47;-11713.31;;;28.09;48.82
10145;BME280;5113;41.822;23.564;2023-08-06T11:11:54;-11687.31;;;27.16;49.99
10145;BME280;5113;41.822;23.564;2023-08-06T11:15:03;-11687.31;;;27.16;50.70
10145;BME280;5113;41.822;23.564;2023-08-06T11:18:09;-11696.66;;;27.49;49.61
10145;BME280;5113;41.822;23.564;2023-08-06T11:21:19;-11691.84;;;27.32;50.49
10145;BME280;5113;41.822;23.564;2023-08-06T11:24:25;-11706.25;;;27.84;50.46
10145;BME280;5113;41.822;23.564;2023-08-06T11:27:32;-11702.16;;;27.69;49.97
10145;BME280;5113;41.822;23.564;2023-08-06T11:30:40;-11695.94;;;27.47;50.69
10145;BME280;5113;41.822;23.564;2023-08-06T11:33:46;-11686.19;;;27.12;50.50
10145;BME280;5113;41.822;23.564;2023-08-06T11:36:53;-11681.66;;;26.95;52.38
10145;BME280;5113;41.822;23.564;2023-08-06T11:39:59;-11719.81;;;28.33;50.09
10145;BME280;5113;41.822;23.564;2023-08-06T11:43:06;-11694.53;;;27.42;50.99
10145;BME280;5113;41.822;23.564;2023-08-06T11:46:14;-11674.91;;;26.71;51.08
10145;BME280;5113;41.822;23.564;2023-08-06T11:49:29;-11710.50;;;27.99;48.26
10145;BME280;5113;41.822;23.564;2023-08-06T11:52:43;-11705.69;;;27.82;48.13
10145;BME280;5113;41.822;23.564;2023-08-06T11:55:50;-11707.66;;;27.89;48.64
10145;BME280;5113;41.822;23.564;2023-08-06T11:58:57;-11703.72;;;27.75;48.26
10145;BME280;5113;41.822;23.564;2023-08-06T12:02:07;-11686.47;;;27.13;49.67
10145;BME280;5113;41.822;23.564;2023-08-06T12:05:16;-11671.66;;;26.59;50.17
10145;BME280;5113;41.822;23.564;2023-08-06T12:08:26;-11713.88;;;28.11;46.31
10145;BME280;5113;41.822;23.564;2023-08-06T12:11:33;-11697.22;;;27.51;48.76
10145;BME280;5113;41.822;23.564;2023-08-06T12:14:39;-11710.78;;;28.00;47.83
10145;BME280;5113;41.822;23.564;2023-08-06T12:17:47;-11750.19;;;29.42;47.46
10145;BME280;5113;41.822;23.564;2023-08-06T12:20:54;-11720.38;;;28.35;46.82
10145;BME280;5113;41.822;23.564;2023-08-06T12:24:00;-11716.41;;;28.20;47.76
10145;BME280;5113;41.822;23.564;2023-08-06T12:27:07;-11706.25;;;27.84;48.74
10145;BME280;5113;41.822;23.564;2023-08-06T12:30:14;-11665.84;;;26.39;50.56
10145;BME280;5113;41.822;23.564;2023-08-06T12:33:21;-11727.16;;;28.59;47.08
10145;BME280;5113;41.822;23.564;2023-08-06T12:36:28;-11715.44;;;28.17;48.23
10145;BME280;5113;41.822;23.564;2023-08-06T12:39:35;-11727.16;;;28.59;48.17
10145;BME280;5113;41.822;23.564;2023-08-06T12:42:42;-11762.47;;;29.86;45.30
10145;BME280;5113;41.822;23.564;2023-08-06T12:45:48;-11690.16;;;27.26;49.35
10145;BME280;5113;41.822;23.564;2023-08-06T12:48:56;-11693.53;;;27.38;48.85
10145;BME280;5113;41.822;23.564;2023-08-06T12:52:04;-11705.69;;;27.82;49.55
10145;BME280;5113;41.822;23.564;2023-08-06T12:55:12;-11731.97;;;28.76;45.84
10145;BME280;5113;41.822;23.564;2023-08-06T12:58:18;-11711.91;;;28.04;47.48
10145;BME280;5113;41.822;23.564;2023-08-06T13:01:25;-11694.94;;;27.43;47.80
10145;BME280;5113;41.822;23.564;2023-08-06T13:04:33;-11700.31;;;27.63;48.06
10145;BME280;5113;41.822;23.564;2023-08-06T13:07:40;-11702.31;;;27.70;48.31
10145;BME280;5113;41.822;23.564;2023-08-06T13:10:46;-11691.41;;;27.30;48.99
10145;BME280;5113;41.822;23.564;2023-08-06T13:13:53;-11681.09;;;26.93;50.09
10145;BME280;5113;41.822;23.564;2023-08-06T13:17:00;-11652.72;;;25.91;51.20
10145;BME280;5113;41.822;23.564;2023-08-06T13:20:08;-11635.78;;;25.30;53.13
10145;BME280;5113;41.822;23.564;2023-08-06T13:23:15;-11657.09;;;26.07;52.19
10145;BME280;5113;41.822;23.564;2023-08-06T13:26:22;-11669.81;;;26.53;51.79
10145;BME280;5113;41.822;23.564;2023-08-06T13:29:28;-11681.66;;;26.95;50.31
10145;BME280;5113;41.822;23.564;2023-08-06T13:32:35;-11684.22;;;27.05;52.47
10145;BME280;5113;41.822;23.564;2023-08-06T13:35:43;-11670.66;;;26.56;50.66
10145;BME280;5113;41.822;23.564;2023-08-06T13:38:49;-11709.91;;;27.97;48.83
10145;BME280;5113;41.822;23.564;2023-08-06T13:41:56;-11692.53;;;27.35;48.14
10145;BME280;5113;41.822;23.564;2023-08-06T13:45:03;-11703.84;;;27.75;47.21
10145;BME280;5113;41.822;23.564;2023-08-06T13:48:10;-11674.03;;;26.68;48.60
10145;BME280;5113;41.822;23.564;2023-08-06T13:51:18;-11667.84;;;26.46;49.24
10145;BME280;5113;41.822;23.564;2023-08-06T13:54:24;-11682.25;;;26.98;47.62
10145;BME280;5113;41.822;23.564;2023-08-06T13:57:31;-11699.63;;;27.60;45.90
10145;BME280;5113;41.822;23.564;2023-08-06T14:00:37;-11722.91;;;28.44;44.93
10145;BME280;5113;41.822;23.564;2023-08-06T14:03:44;-11715.16;;;28.16;45.31
10145;BME280;5113;41.822;23.564;2023-08-06T14:06:52;-11721.38;;;28.38;43.98
10145;BME280;5113;41.822;23.564;2023-08-06T14:09:59;-11721.94;;;28.40;43.19
10145;BME280;5113;41.822;23.564;2023-08-06T14:13:05;-11695.78;;;27.46;44.55
10145;BME280;5113;41.822;23.564;2023-08-06T14:16:15;-11740.84;;;29.08;41.65
10145;BME280;5113;41.822;23.564;2023-08-06T14:19:21;-11726.16;;;28.55;42.21
10145;BME280;5113;41.822;23.564;2023-08-06T14:22:29;-11731.97;;;28.76;40.90
10145;BME280;5113;41.822;23.564;2023-08-06T14:25:36;-11717.28;;;28.23;41.26
10145;BME280;5113;41.822;23.564;2023-08-06T14:28:43;-11704.84;;;27.79;42.91
10145;BME280;5113;41.822;23.564;2023-08-06T14:31:50;-11749.91;;;29.41;42.30
10145;BME280;5113;41.822;23.564;2023-08-06T14:34:56;-11737.91;;;28.98;41.53
10145;BME280;5113;41.822;23.564;2023-08-06T14:38:05;-11736.75;;;28.93;41.10
10145;BME280;5113;41.822;23.564;2023-08-06T14:41:11;-11702.87;;;27.72;42.03
10145;BME280;5113;41.822;23.564;2023-08-06T14:44:18;-11675.19;;;26.72;44.10
10145;BME280;5113;41.822;23.564;2023-08-06T14:47:25;-11696.66;;;27.49;42.82
10145;BME280;5113;41.822;23.564;2023-08-06T14:50:31;-11701.88;;;27.68;42.41
10145;BME280;5113;41.822;23.564;2023-08-06T14:53:40;-11699.91;;;27.61;42.43
10145;BME280;5113;41.822;23.564;2023-08-06T14:56:47;-11709.22;;;27.94;41.68
10145;BME280;5113;41.822;23.564;2023-08-06T14:59:53;-11701.59;;;27.67;41.74
10145;BME280;5113;41.822;23.564;2023-08-06T15:02:59;-11722.91;;;28.44;41.22
10145;BME280;5113;41.822;23.564;2023-08-06T15:06:06;-11684.50;;;27.06;43.08
10145;BME280;5113;41.822;23.564;2023-08-06T15:09:14;-11755.41;;;29.61;38.54
10145;BME280;5113;41.822;23.564;2023-08-06T15:12:20;-11748.06;;;29.34;38.88
10145;BME280;5113;41.822;23.564;2023-08-06T15:15:27;-11784.66;;;30.66;37.29
10145;BME280;5113;41.822;23.564;2023-08-06T15:18:33;-11822.94;;;32.03;35.97
10145;BME280;5113;41.822;23.564;2023-08-06T15:21:40;-11787.91;;;30.77;37.37
10145;BME280;5113;41.822;23.564;2023-08-06T15:24:49;-11787.63;;;30.76;37.87
10145;BME280;5113;41.822;23.564;2023-08-06T15:27:55;-11712.19;;;28.05;41.03
10145;BME280;5113;41.822;23.564;2023-08-06T15:31:02;-11664.88;;;26.35;44.64
10145;BME280;5113;41.822;23.564;2023-08-06T15:34:13;-11656.69;;;26.06;44.70
10145;BME280;5113;41.822;23.564;2023-08-06T15:37:19;-11646.94;;;25.71;45.17
10145;BME280;5113;41.822;23.564;2023-08-06T15:40:27;-11638.88;;;25.42;45.45
10145;BME280;5113;41.822;23.564;2023-08-06T15:43:34;-11644.53;;;25.62;46.32
10145;BME280;5113;41.822;23.564;2023-08-06T15:46:40;-11632.25;;;25.18;46.47
10145;BME280;5113;41.822;23.564;2023-08-06T15:49:47;-11640.84;;;25.49;45.48
10145;BME280;5113;41.822;23.564;2023-08-06T15:52:53;-11637.75;;;25.38;44.98
10145;BME280;5113;41.822;23.564;2023-08-06T15:56:01;-11629.56;;;25.08;45.47
10145;BME280;5113;41.822;23.564;2023-08-06T15:59:23;-11628.88;;;25.06;45.21
10145;BME280;5113;41.822;23.564;2023-08-06T16:02:30;-11634.78;;;25.27;45.74
10145;BME280;5113;41.822;23.564;2023-08-06T16:05:36;-11625.47;;;24.93;45.84
10145;BME280;5113;41.822;23.564;2023-08-06T16:08:43;-11625.75;;;24.94;46.52
10145;BME280;5113;41.822;23.564;2023-08-06T16:11:52;-11622.66;;;24.83;46.09
10145;BME280;5113;41.822;23.564;2023-08-06T16:14:59;-11619.53;;;24.72;46.70
10145;BME280;5113;41.822;23.564;2023-08-06T16:18:05;-11621.25;;;24.78;47.29